sensor_id;sensor_type;location;lat;lon;timestamp;pressure;altitude;pressure_sealevel;temperature;humidity
80128;BME280;69440;52.118;5.408;2023-08-12T00:01:05;101881.41;;;20.50;89.65
80128;BME280;69440;52.118;5.408;2023-08-12T00:03:32;101894.19;;;20.49;89.11
80128;BME280;69440;52.118;5.408;2023-08-12T00:05:58;101892.84;;;20.43;89.21
80128;BME280;69440;52.118;5.408;2023-08-12T00:08:27;101900.31;;;20.41;89.26
80128;BME280;69440;52.118;5.408;2023-08-12T00:10:55;101888.53;;;20.41;89.51
80128;BME280;69440;52.118;5.408;2023-08-12T00:13:21;101884.78;;;20.42;89.59
80128;BME280;69440;52.118;5.408;2023-08-12T00:15:48;101885.66;;;20.42;89.11
80128;BME280;69440;52.118;5.408;2023-08-12T00:18:15;101896.06;;;20.37;89.26
80128;BME280;69440;52.118;5.408;2023-08-12T00:20:41;101895.09;;;20.38;89.43
80128;BME280;69440;52.118;5.408;2023-08-12T00:23:08;101879.09;;;20.34;89.55
80128;BME280;69440;52.118;5.408;2023-08-12T00:25:35;101880.69;;;20.36;89.90
80128;BME280;69440;52.118;5.408;2023-08-12T00:28:01;101889.13;;;20.33;89.70
80128;BME280;69440;52.118;5.408;2023-08-12T00:30:28;101889.53;;;20.29;90.17
80128;BME280;69440;52.118;5.408;2023-08-12T00:32:54;101877.75;;;20.28;89.92
80128;BME280;69440;52.118;5.408;2023-08-12T00:35:21;101878.00;;;20.25;90.45
80128;BME280;69440;52.118;5.408;2023-08-12T00:37:47;101879.59;;;20.28;90.58
80128;BME280;69440;52.118;5.408;2023-08-12T00:40:14;101870.53;;;20.27;90.85
80128;BME280;69440;52.118;5.408;2023-08-12T00:42:40;101861.34;;;20.28;90.67
80128;BME280;69440;52.118;5.408;2023-08-12T00:45:10;101862.09;;;20.30;91.01
80128;BME280;69440;52.118;5.408;2023-08-12T00:47:39;101858.88;;;20.25;90.85
80128;BME280;69440;52.118;5.408;2023-08-12T00:50:08;101844.63;;;20.22;91.13
80128;BME280;69440;52.118;5.408;2023-08-12T00:52:35;101848.09;;;20.24;90.72
80128;BME280;69440;52.118;5.408;2023-08-12T00:55:02;101849.81;;;20.25;90.88
80128;BME280;69440;52.118;5.408;2023-08-12T00:57:29;101844.34;;;20.25;90.97
80128;BME280;69440;52.118;5.408;2023-08-12T00:59:56;101841.88;;;20.22;91.13
80128;BME280;69440;52.118;5.408;2023-08-12T01:02:23;101844.25;;;20.15;91.14
80128;BME280;69440;52.118;5.408;2023-08-12T01:04:50;101843.50;;;20.13;91.91
80128;BME280;69440;52.118;5.408;2023-08-12T01:07:16;101839.16;;;20.10;91.56
80128;BME280;69440;52.118;5.408;2023-08-12T01:09:43;101835.56;;;20.10;91.38
80128;BME280;69440;52.118;5.408;2023-08-12T01:12:15;101832.22;;;20.06;91.75
80128;BME280;69440;52.118;5.408;2023-08-12T01:14:58;101824.78;;;20.08;91.76
80128;BME280;69440;52.118;5.408;2023-08-12T01:17:28;101829.63;;;20.05;92.01
80128;BME280;69440;52.118;5.408;2023-08-12T01:19:56;101833.88;;;19.98;91.27
80128;BME280;69440;52.118;5.408;2023-08-12T01:22:23;101833.00;;;19.97;92.46
80128;BME280;69440;52.118;5.408;2023-08-12T01:24:52;101830.16;;;19.99;92.14
80128;BME280;69440;52.118;5.408;2023-08-12T01:27:18;101820.22;;;19.98;92.20
80128;BME280;69440;52.118;5.408;2023-08-12T01:29:48;101816.75;;;19.96;92.22
80128;BME280;69440;52.118;5.408;2023-08-12T01:37:31;101810.44;;;19.95;92.22
80128;BME280;69440;52.118;5.408;2023-08-12T01:40:00;101810.69;;;19.92;92.55
80128;BME280;69440;52.118;5.408;2023-08-12T01:42:28;101803.25;;;19.94;92.05
80128;BME280;69440;52.118;5.408;2023-08-12T01:44:55;101795.91;;;19.95;92.77
80128;BME280;69440;52.118;5.408;2023-08-12T01:47:22;101797.03;;;19.92;92.86
80128;BME280;69440;52.118;5.408;2023-08-12T01:49:48;101804.84;;;19.85;93.37
80128;BME280;69440;52.118;5.408;2023-08-12T01:52:15;101789.34;;;19.86;93.07
80128;BME280;69440;52.118;5.408;2023-08-12T01:54:42;101795.78;;;19.85;93.24
80128;BME280;69440;52.118;5.408;2023-08-12T01:57:16;101798.78;;;19.82;93.46
80128;BME280;69440;52.118;5.408;2023-08-12T01:59:43;101791.47;;;19.82;93.73
80128;BME280;69440;52.118;5.408;2023-08-12T02:02:12;101779.69;;;19.82;93.15
80128;BME280;69440;52.118;5.408;2023-08-12T02:04:40;101776.94;;;19.82;93.54
80128;BME280;69440;52.118;5.408;2023-08-12T02:07:08;101777.06;;;19.80;93.37
80128;BME280;69440;52.118;5.408;2023-08-12T02:09:35;101777.06;;;19.80;93.82
80128;BME280;69440;52.118;5.408;2023-08-12T02:12:02;101777.47;;;19.76;93.77
80128;BME280;69440;52.118;5.408;2023-08-12T02:14:28;101777.06;;;19.80;94.32
80128;BME280;69440;52.118;5.408;2023-08-12T02:16:55;101778.94;;;19.80;93.80
80128;BME280;69440;52.118;5.408;2023-08-12T02:19:21;101772.75;;;19.78;93.88
80128;BME280;69440;52.118;5.408;2023-08-12T02:21:48;101769.88;;;19.79;93.78
80128;BME280;69440;52.118;5.408;2023-08-12T02:24:14;101770.75;;;19.80;94.40
80128;BME280;69440;52.118;5.408;2023-08-12T02:26:41;101765.28;;;19.80;94.33
80128;BME280;69440;52.118;5.408;2023-08-12T02:29:07;101762.69;;;19.78;93.86
80128;BME280;69440;52.118;5.408;2023-08-12T02:31:33;101757.25;;;19.78;94.02
80128;BME280;69440;52.118;5.408;2023-08-12T02:34:00;101756.13;;;19.81;94.06
80128;BME280;69440;52.118;5.408;2023-08-12T02:36:27;101761.31;;;19.84;94.35
80128;BME280;69440;52.118;5.408;2023-08-12T02:38:53;101755.84;;;19.84;93.65
80128;BME280;69440;52.118;5.408;2023-08-12T02:41:19;101754.50;;;19.78;93.59
80128;BME280;69440;52.118;5.408;2023-08-12T02:43:46;101748.56;;;19.73;93.90
80128;BME280;69440;52.118;5.408;2023-08-12T02:46:12;101757.25;;;19.78;94.26
80128;BME280;69440;52.118;5.408;2023-08-12T02:48:42;101749.53;;;19.83;94.77
80128;BME280;69440;52.118;5.408;2023-08-12T02:51:09;101762.19;;;19.84;94.46
80128;BME280;69440;52.118;5.408;2023-08-12T02:53:36;101752.25;;;19.83;94.03
80128;BME280;69440;52.118;5.408;2023-08-12T02:56:03;101747.66;;;19.84;94.37
80128;BME280;69440;52.118;5.408;2023-08-12T02:58:29;101746.81;;;19.83;93.96
80128;BME280;69440;52.118;5.408;2023-08-12T03:00:56;101742.09;;;19.85;94.40
80128;BME280;69440;52.118;5.408;2023-08-12T03:03:23;101733.78;;;19.87;94.19
80128;BME280;69440;52.118;5.408;2023-08-12T03:05:49;101730.31;;;19.85;94.19
80128;BME280;69440;52.118;5.408;2023-08-12T03:08:16;101723.97;;;19.84;94.59
80128;BME280;69440;52.118;5.408;2023-08-12T03:10:45;101726.56;;;19.86;95.03
80128;BME280;69440;52.118;5.408;2023-08-12T03:13:11;101723.97;;;19.84;94.79
80128;BME280;69440;52.118;5.408;2023-08-12T03:15:39;101721.97;;;19.87;95.14
80128;BME280;69440;52.118;5.408;2023-08-12T03:18:06;101722.72;;;19.89;95.63
80128;BME280;69440;52.118;5.408;2023-08-12T03:20:33;101719.75;;;19.92;95.57
80128;BME280;69440;52.118;5.408;2023-08-12T03:22:59;101716.91;;;19.93;95.14
80128;BME280;69440;52.118;5.408;2023-08-12T03:25:26;101714.31;;;19.92;95.47
80128;BME280;69440;52.118;5.408;2023-08-12T03:27:53;101713.91;;;19.96;95.17
80128;BME280;69440;52.118;5.408;2023-08-12T03:30:19;101721.97;;;19.98;95.80
80128;BME280;69440;52.118;5.408;2023-08-12T03:32:46;101707.59;;;19.96;95.65
80128;BME280;69440;52.118;5.408;2023-08-12T03:35:12;101708.31;;;19.98;95.82
80128;BME280;69440;52.118;5.408;2023-08-12T03:37:39;101709.06;;;20.00;95.44
80128;BME280;69440;52.118;5.408;2023-08-12T03:40:06;101700.41;;;19.95;95.78
80128;BME280;69440;52.118;5.408;2023-08-12T03:42:32;101694.53;;;19.99;96.06
80128;BME280;69440;52.118;5.408;2023-08-12T03:44:59;101693.41;;;20.02;95.99
80128;BME280;69440;52.118;5.408;2023-08-12T03:47:25;101691.41;;;20.04;95.72
80128;BME280;69440;52.118;5.408;2023-08-12T03:49:53;101691.28;;;20.05;96.27
80128;BME280;69440;52.118;5.408;2023-08-12T03:52:19;101690.28;;;20.06;95.90
80128;BME280;69440;52.118;5.408;2023-08-12T03:54:46;101685.69;;;20.07;95.62
80128;BME280;69440;52.118;5.408;2023-08-12T03:57:13;101683.97;;;20.06;96.04
80128;BME280;69440;52.118;5.408;2023-08-12T03:59:39;101679.50;;;20.05;96.05
80128;BME280;69440;52.118;5.408;2023-08-12T04:02:06;101674.03;;;20.05;95.86
80128;BME280;69440;52.118;5.408;2023-08-12T04:04:32;101679.38;;;20.06;95.94
80128;BME280;69440;52.118;5.408;2023-08-12T04:06:59;101672.78;;;20.09;96.40
80128;BME280;69440;52.118;5.408;2023-08-12T04:09:26;101667.31;;;20.09;96.30
80128;BME280;69440;52.118;5.408;2023-08-12T04:11:52;101657.41;;;20.08;96.06
80128;BME280;69440;52.118;5.408;2023-08-12T04:14:19;101660.88;;;20.10;96.55
80128;BME280;69440;52.118;5.408;2023-08-12T04:16:45;101656.53;;;20.07;96.23
80128;BME280;69440;52.118;5.408;2023-08-12T04:19:12;101651.22;;;20.06;96.73
80128;BME280;69440;52.118;5.408;2023-08-12T04:21:39;101654.81;;;20.06;97.15
80128;BME280;69440;52.118;5.408;2023-08-12T04:24:06;101658.25;;;20.08;97.20
80128;BME280;69440;52.118;5.408;2023-08-12T04:26:33;101658.41;;;20.07;97.02
80128;BME280;69440;52.118;5.408;2023-08-12T04:28:59;101662.72;;;20.09;97.43
80128;BME280;69440;52.118;5.408;2023-08-12T04:31:26;101658.72;;;20.13;97.56
80128;BME280;69440;52.118;5.408;2023-08-12T04:33:52;101655.88;;;20.15;97.25
80128;BME280;69440;52.118;5.408;2023-08-12T04:36:19;101653.00;;;20.16;97.50
80128;BME280;69440;52.118;5.408;2023-08-12T04:38:46;101653.72;;;20.19;97.65
80128;BME280;69440;52.118;5.408;2023-08-12T04:41:12;101640.84;;;20.21;97.55
80128;BME280;69440;52.118;5.408;2023-08-12T04:43:39;101631.53;;;20.23;97.38
80128;BME280;69440;52.118;5.408;2023-08-12T04:46:05;101627.78;;;20.24;97.67
80128;BME280;69440;52.118;5.408;2023-08-12T04:48:32;101624.78;;;20.27;97.10
80128;BME280;69440;52.118;5.408;2023-08-12T04:50:58;101619.34;;;20.27;97.38
80128;BME280;69440;52.118;5.408;2023-08-12T04:53:28;101610.13;;;20.28;97.63
80128;BME280;69440;52.118;5.408;2023-08-12T04:55:55;101617.75;;;20.25;97.53
80128;BME280;69440;52.118;5.408;2023-08-12T04:58:21;101609.28;;;20.28;97.30
80128;BME280;69440;52.118;5.408;2023-08-12T05:00:48;101601.94;;;20.28;97.77
80128;BME280;69440;52.118;5.408;2023-08-12T05:03:14;101604.69;;;20.28;97.63
80128;BME280;69440;52.118;5.408;2023-08-12T05:05:41;101602.94;;;20.27;97.54
80128;BME280;69440;52.118;5.408;2023-08-12T05:08:07;101602.09;;;20.27;97.77
80128;BME280;69440;52.118;5.408;2023-08-12T05:10:34;101586.84;;;20.24;97.70
80128;BME280;69440;52.118;5.408;2023-08-12T05:13:00;101589.44;;;20.26;97.87
80128;BME280;69440;52.118;5.408;2023-08-12T05:15:27;101598.50;;;20.26;97.64
80128;BME280;69440;52.118;5.408;2023-08-12T05:17:53;101609.28;;;20.28;97.96
80128;BME280;69440;52.118;5.408;2023-08-12T05:20:20;101611.13;;;20.27;97.93
80128;BME280;69440;52.118;5.408;2023-08-12T05:22:46;101606.41;;;20.29;97.70
80128;BME280;69440;52.118;5.408;2023-08-12T05:25:13;101603.69;;;20.29;97.50
80128;BME280;69440;52.118;5.408;2023-08-12T05:27:40;101596.63;;;20.27;97.90
80128;BME280;69440;52.118;5.408;2023-08-12T05:30:06;101603.94;;;20.26;97.86
80128;BME280;69440;52.118;5.408;2023-08-12T05:32:33;101605.69;;;20.27;97.85
80128;BME280;69440;52.118;5.408;2023-08-12T05:35:00;101606.53;;;20.28;98.07
80128;BME280;69440;52.118;5.408;2023-08-12T05:37:26;101606.69;;;20.26;97.60
80128;BME280;69440;52.118;5.408;2023-08-12T05:39:53;101605.69;;;20.27;98.23
80128;BME280;69440;52.118;5.408;2023-08-12T05:42:19;101613.00;;;20.27;97.93
80128;BME280;69440;52.118;5.408;2023-08-12T05:44:46;101603.81;;;20.28;98.12
80128;BME280;69440;52.118;5.408;2023-08-12T05:47:12;101613.00;;;20.27;98.36
80128;BME280;69440;52.118;5.408;2023-08-12T05:49:39;101608.69;;;20.24;98.44
80128;BME280;69440;52.118;5.408;2023-08-12T05:52:05;101604.09;;;20.25;98.36
80128;BME280;69440;52.118;5.408;2023-08-12T05:54:32;101607.53;;;20.27;98.46
80128;BME280;69440;52.118;5.408;2023-08-12T05:56:58;101605.81;;;20.26;98.81
80128;BME280;69440;52.118;5.408;2023-08-12T05:59:25;101604.09;;;20.25;99.08
80128;BME280;69440;52.118;5.408;2023-08-12T06:01:51;101601.50;;;20.23;99.14
80128;BME280;69440;52.118;5.408;2023-08-12T06:04:18;101596.03;;;20.23;99.04
80128;BME280;69440;52.118;5.408;2023-08-12T06:06:44;101607.94;;;20.22;99.04
80128;BME280;69440;52.118;5.408;2023-08-12T06:09:11;101595.41;;;20.20;99.51
80128;BME280;69440;52.118;5.408;2023-08-12T06:11:37;101602.13;;;20.15;99.44
80128;BME280;69440;52.118;5.408;2023-08-12T06:14:04;101598.53;;;20.15;99.84
80128;BME280;69440;52.118;5.408;2023-08-12T06:16:30;101610.59;;;20.12;99.58
80128;BME280;69440;52.118;5.408;2023-08-12T06:18:57;101602.41;;;20.12;99.76
80128;BME280;69440;52.118;5.408;2023-08-12T06:21:23;101593.22;;;20.13;100.00
80128;BME280;69440;52.118;5.408;2023-08-12T06:23:50;101600.81;;;20.10;99.85
80128;BME280;69440;52.118;5.408;2023-08-12T06:26:16;101604.69;;;20.07;99.53
80128;BME280;69440;52.118;5.408;2023-08-12T06:28:43;101602.94;;;20.06;100.00
80128;BME280;69440;52.118;5.408;2023-08-12T06:31:09;101605.06;;;20.03;100.00
80128;BME280;69440;52.118;5.408;2023-08-12T06:33:36;101598.16;;;19.99;100.00
80128;BME280;69440;52.118;5.408;2023-08-12T06:36:02;101605.88;;;19.94;100.00
80128;BME280;69440;52.118;5.408;2023-08-12T06:38:29;101609.97;;;19.88;100.00
80128;BME280;69440;52.118;5.408;2023-08-12T06:40:56;101607.25;;;19.88;100.00
80128;BME280;69440;52.118;5.408;2023-08-12T06:43:22;101611.72;;;19.89;100.00
80128;BME280;69440;52.118;5.408;2023-08-12T06:45:49;101607.66;;;19.83;100.00
80128;BME280;69440;52.118;5.408;2023-08-12T06:48:15;101601.72;;;19.78;100.00
80128;BME280;69440;52.118;5.408;2023-08-12T06:50:42;101598.72;;;19.81;100.00
80128;BME280;69440;52.118;5.408;2023-08-12T06:53:08;101594.75;;;19.85;100.00
80128;BME280;69440;52.118;5.408;2023-08-12T06:55:35;101588.28;;;19.87;100.00
80128;BME280;69440;52.118;5.408;2023-08-12T06:58:01;101590.00;;;19.88;100.00
80128;BME280;69440;52.118;5.408;2023-08-12T07:00:28;101582.69;;;19.88;100.00
80128;BME280;69440;52.118;5.408;2023-08-12T07:02:55;101583.56;;;19.89;100.00
80128;BME280;69440;52.118;5.408;2023-08-12T07:05:21;101585.41;;;19.88;100.00
80128;BME280;69440;52.118;5.408;2023-08-12T07:07:48;101587.56;;;19.84;100.00
80128;BME280;69440;52.118;5.408;2023-08-12T07:10:14;101588.69;;;19.82;100.00
80128;BME280;69440;52.118;5.408;2023-08-12T07:12:46;101587.09;;;19.79;100.00
80128;BME280;69440;52.118;5.408;2023-08-12T07:15:21;101580.38;;;19.83;100.00
80128;BME280;69440;52.118;5.408;2023-08-12T07:18:02;101580.03;;;19.77;100.00
80128;BME280;69440;52.118;5.408;2023-08-12T07:20:29;101576.56;;;19.75;100.00
80128;BME280;69440;52.118;5.408;2023-08-12T07:22:55;101571.97;;;19.75;100.00
80128;BME280;69440;52.118;5.408;2023-08-12T07:25:22;101572.97;;;19.74;100.00
80128;BME280;69440;52.118;5.408;2023-08-12T07:27:48;101571.38;;;19.72;100.00
80128;BME280;69440;52.118;5.408;2023-08-12T07:30:15;101571.91;;;19.66;100.00
80128;BME280;69440;52.118;5.408;2023-08-12T07:32:41;101568.19;;;19.67;100.00
80128;BME280;69440;52.118;5.408;2023-08-12T07:35:08;101563.72;;;19.66;100.00
80128;BME280;69440;52.118;5.408;2023-08-12T07:37:35;101558.28;;;19.66;100.00
80128;BME280;69440;52.118;5.408;2023-08-12T07:40:01;101561.00;;;19.66;100.00
80128;BME280;69440;52.118;5.408;2023-08-12T07:42:29;101553.56;;;19.68;100.00
80128;BME280;69440;52.118;5.408;2023-08-12T07:44:56;101553.56;;;19.68;100.00
80128;BME280;69440;52.118;5.408;2023-08-12T07:47:22;101550.22;;;19.64;100.00
80128;BME280;69440;52.118;5.408;2023-08-12T07:49:49;101550.50;;;19.61;100.00
80128;BME280;69440;52.118;5.408;2023-08-12T07:52:15;101552.34;;;19.61;100.00
80128;BME280;69440;52.118;5.408;2023-08-12T07:54:42;101551.22;;;19.63;100.00
80128;BME280;69440;52.118;5.408;2023-08-12T07:57:08;101551.59;;;19.59;100.00
80128;BME280;69440;52.118;5.408;2023-08-12T07:59:35;101549.00;;;19.57;100.00
80128;BME280;69440;52.118;5.408;2023-08-12T08:02:02;101553.72;;;19.55;100.00
80128;BME280;69440;52.118;5.408;2023-08-12T08:04:29;101555.44;;;19.56;100.00
80128;BME280;69440;52.118;5.408;2023-08-12T08:06:56;101557.31;;;19.56;100.00
80128;BME280;69440;52.118;5.408;2023-08-12T08:09:22;101560.16;;;19.54;100.00
80128;BME280;69440;52.118;5.408;2023-08-12T08:11:49;101557.81;;;19.61;100.00
80128;BME280;69440;52.118;5.408;2023-08-12T08:14:15;101557.19;;;19.57;100.00
80128;BME280;69440;52.118;5.408;2023-08-12T08:16:42;101559.53;;;19.62;100.00
80128;BME280;69440;52.118;5.408;2023-08-12T08:19:08;101557.19;;;19.57;100.00
80128;BME280;69440;52.118;5.408;2023-08-12T08:21:39;101559.03;;;19.57;100.00
80128;BME280;69440;52.118;5.408;2023-08-12T08:24:06;101554.09;;;19.62;100.00
80128;BME280;69440;52.118;5.408;2023-08-12T08:26:32;101560.41;;;19.62;100.00
80128;BME280;69440;52.118;5.408;2023-08-12T08:28:59;101561.13;;;19.64;100.00
80128;BME280;69440;52.118;5.408;2023-08-12T08:31:25;101556.69;;;19.63;100.00
80128;BME280;69440;52.118;5.408;2023-08-12T08:33:52;101561.88;;;19.66;100.00
80128;BME280;69440;52.118;5.408;2023-08-12T08:36:18;101564.94;;;19.73;100.00
80128;BME280;69440;52.118;5.408;2023-08-12T08:38:45;101561.88;;;19.66;100.00
80128;BME280;69440;52.118;5.408;2023-08-12T08:41:12;101566.94;;;19.71;100.00
80128;BME280;69440;52.118;5.408;2023-08-12T08:43:41;101569.78;;;19.69;100.00
80128;BME280;69440;52.118;5.408;2023-08-12T08:46:10;101569.66;;;19.71;100.00
80128;BME280;69440;52.118;5.408;2023-08-12T08:48:39;101573.72;;;19.76;100.00
80128;BME280;69440;52.118;5.408;2023-08-12T08:51:06;101580.56;;;19.71;100.00
80128;BME280;69440;52.118;5.408;2023-08-12T08:53:37;101582.69;;;19.67;100.00
80128;BME280;69440;52.118;5.408;2023-08-12T08:56:06;101582.69;;;19.67;100.00
80128;BME280;69440;52.118;5.408;2023-08-12T08:58:40;101584.81;;;19.64;100.00
80128;BME280;69440;52.118;5.408;2023-08-12T09:01:08;101576.03;;;19.60;100.00
80128;BME280;69440;52.118;5.408;2023-08-12T09:03:38;101602.44;;;19.48;100.00
80128;BME280;69440;52.118;5.408;2023-08-12T09:06:04;101606.47;;;19.22;100.00
80128;BME280;69440;52.118;5.408;2023-08-12T09:08:32;101608.34;;;19.10;100.00
80128;BME280;69440;52.118;5.408;2023-08-12T09:10:59;101618.28;;;18.89;100.00
80128;BME280;69440;52.118;5.408;2023-08-12T09:13:26;101616.44;;;18.78;100.00
80128;BME280;69440;52.118;5.408;2023-08-12T09:15:53;101621.59;;;18.59;100.00
80128;BME280;69440;52.118;5.408;2023-08-12T09:18:32;101623.34;;;18.49;100.00
80128;BME280;69440;52.118;5.408;2023-08-12T09:20:59;101623.34;;;18.49;100.00
80128;BME280;69440;52.118;5.408;2023-08-12T09:23:26;101602.63;;;18.35;100.00
80128;BME280;69440;52.118;5.408;2023-08-12T09:25:52;101599.53;;;18.28;100.00
80128;BME280;69440;52.118;5.408;2023-08-12T09:28:19;101590.91;;;18.46;100.00
80128;BME280;69440;52.118;5.408;2023-08-12T09:30:52;101607.06;;;18.25;100.00
80128;BME280;69440;52.118;5.408;2023-08-12T09:33:25;101614.25;;;18.26;100.00
80128;BME280;69440;52.118;5.408;2023-08-12T09:35:53;101611.56;;;18.37;100.00
80128;BME280;69440;52.118;5.408;2023-08-12T09:38:21;101626.41;;;18.44;100.00
80128;BME280;69440;52.118;5.408;2023-08-12T09:40:47;101626.41;;;18.44;100.00
80128;BME280;69440;52.118;5.408;2023-08-12T09:43:14;101635.59;;;18.43;100.00
80128;BME280;69440;52.118;5.408;2023-08-12T09:45:44;101639.13;;;18.33;100.00
80128;BME280;69440;52.118;5.408;2023-08-12T09:48:11;101645.69;;;18.30;100.00
80128;BME280;69440;52.118;5.408;2023-08-12T09:50:41;101635.94;;;18.50;100.00
80128;BME280;69440;52.118;5.408;2023-08-12T09:53:08;101642.25;;;18.61;100.00
80128;BME280;69440;52.118;5.408;2023-08-12T09:55:35;101649.81;;;18.58;100.00
80128;BME280;69440;52.118;5.408;2023-08-12T09:58:05;101659.50;;;18.62;100.00
80128;BME280;69440;52.118;5.408;2023-08-12T10:00:34;101662.06;;;18.52;100.00
80128;BME280;69440;52.118;5.408;2023-08-12T10:03:01;101667.25;;;18.55;100.00
80128;BME280;69440;52.118;5.408;2023-08-12T10:05:32;101662.09;;;18.64;100.00
80128;BME280;69440;52.118;5.408;2023-08-12T10:07:58;101671.66;;;18.69;100.00
80128;BME280;69440;52.118;5.408;2023-08-12T10:10:28;101662.38;;;18.72;100.00
80128;BME280;69440;52.118;5.408;2023-08-12T10:12:56;101651.34;;;18.96;100.00
80128;BME280;69440;52.118;5.408;2023-08-12T10:15:23;101645.16;;;19.05;100.00
80128;BME280;69440;52.118;5.408;2023-08-12T10:17:51;101631.13;;;19.20;100.00
80128;BME280;69440;52.118;5.408;2023-08-12T10:20:25;101630.25;;;19.20;100.00
80128;BME280;69440;52.118;5.408;2023-08-12T10:22:53;101641.16;;;19.31;100.00
80128;BME280;69440;52.118;5.408;2023-08-12T10:25:21;101644.72;;;19.43;100.00
80128;BME280;69440;52.118;5.408;2023-08-12T10:27:48;101650.25;;;19.52;100.00
80128;BME280;69440;52.118;5.408;2023-08-12T10:30:15;101643.97;;;19.63;100.00
80128;BME280;69440;52.118;5.408;2023-08-12T10:32:42;101647.63;;;19.73;100.00
80128;BME280;69440;52.118;5.408;2023-08-12T10:35:09;101643.81;;;19.97;100.00
80128;BME280;69440;52.118;5.408;2023-08-12T10:37:36;101636.56;;;20.07;100.00
80128;BME280;69440;52.118;5.408;2023-08-12T10:40:04;101637.44;;;20.28;100.00
80128;BME280;69440;52.118;5.408;2023-08-12T10:42:45;101636.03;;;20.34;100.00
80128;BME280;69440;52.118;5.408;2023-08-12T10:45:13;101648.50;;;20.27;100.00
80128;BME280;69440;52.118;5.408;2023-08-12T10:47:42;101649.06;;;20.09;100.00
80128;BME280;69440;52.118;5.408;2023-08-12T10:50:18;101651.94;;;20.08;100.00
80128;BME280;69440;52.118;5.408;2023-08-12T10:52:45;101653.81;;;20.07;100.00
80128;BME280;69440;52.118;5.408;2023-08-12T10:55:23;101653.41;;;20.33;100.00
80128;BME280;69440;52.118;5.408;2023-08-12T10:57:51;101640.72;;;20.43;100.00
80128;BME280;69440;52.118;5.408;2023-08-12T11:00:26;101645.31;;;20.63;100.00
80128;BME280;69440;52.118;5.408;2023-08-12T11:02:57;101642.16;;;20.68;100.00
80128;BME280;69440;52.118;5.408;2023-08-12T11:05:24;101643.78;;;20.50;100.00
80128;BME280;69440;52.118;5.408;2023-08-12T11:08:02;101652.31;;;20.56;100.00
80128;BME280;69440;52.118;5.408;2023-08-12T11:10:33;101649.25;;;20.80;100.00
80128;BME280;69440;52.118;5.408;2023-08-12T11:13:02;101636.13;;;21.04;100.00
80128;BME280;69440;52.118;5.408;2023-08-12T11:17:55;101637.16;;;21.44;100.00
80128;BME280;69440;52.118;5.408;2023-08-12T11:20:22;101629.66;;;21.55;100.00
80128;BME280;69440;52.118;5.408;2023-08-12T11:22:50;101632.25;;;21.47;100.00
80128;BME280;69440;52.118;5.408;2023-08-12T11:25:17;101627.78;;;21.56;100.00
80128;BME280;69440;52.118;5.408;2023-08-12T11:27:47;101624.06;;;21.76;100.00
80128;BME280;69440;52.118;5.408;2023-08-12T11:30:18;101620.34;;;22.06;100.00
80128;BME280;69440;52.118;5.408;2023-08-12T11:32:50;101627.38;;;22.28;98.10
80128;BME280;69440;52.118;5.408;2023-08-12T11:35:18;101632.69;;;22.39;100.00
80128;BME280;69440;52.118;5.408;2023-08-12T11:37:51;101633.34;;;22.60;96.19
80128;BME280;69440;52.118;5.408;2023-08-12T11:40:23;101630.03;;;22.57;92.26
80128;BME280;69440;52.118;5.408;2023-08-12T11:42:51;101634.34;;;22.69;92.67
80128;BME280;69440;52.118;5.408;2023-08-12T11:45:19;101627.38;;;22.84;91.05
80128;BME280;69440;52.118;5.408;2023-08-12T11:47:47;101619.56;;;22.80;94.70
80128;BME280;69440;52.118;5.408;2023-08-12T11:50:24;101627.47;;;22.46;91.40
80128;BME280;69440;52.118;5.408;2023-08-12T11:52:51;101624.69;;;22.55;92.97
80128;BME280;69440;52.118;5.408;2023-08-12T11:55:18;101625.97;;;22.61;89.20
80128;BME280;69440;52.118;5.408;2023-08-12T11:57:45;101634.16;;;22.24;89.49
80128;BME280;69440;52.118;5.408;2023-08-12T12:00:12;101631.84;;;22.19;90.13
80128;BME280;69440;52.118;5.408;2023-08-12T12:02:51;101631.16;;;22.74;94.00
80128;BME280;69440;52.118;5.408;2023-08-12T12:05:23;101626.75;;;23.28;93.78
80128;BME280;69440;52.118;5.408;2023-08-12T12:07:50;101637.25;;;23.60;92.39
80128;BME280;69440;52.118;5.408;2023-08-12T12:10:27;101630.03;;;23.94;90.70
80128;BME280;69440;52.118;5.408;2023-08-12T12:12:59;101637.94;;;23.79;88.49
80128;BME280;69440;52.118;5.408;2023-08-12T12:15:26;101631.84;;;23.68;86.00
80128;BME280;69440;52.118;5.408;2023-08-12T12:17:53;101630.66;;;23.88;85.27
80128;BME280;69440;52.118;5.408;2023-08-12T12:20:20;101634.00;;;23.82;87.83
80128;BME280;69440;52.118;5.408;2023-08-12T12:22:48;101628.13;;;24.30;87.87
80128;BME280;69440;52.118;5.408;2023-08-12T12:25:16;101625.59;;;24.37;81.43
80128;BME280;69440;52.118;5.408;2023-08-12T12:27:45;101632.81;;;24.64;81.09
80128;BME280;69440;52.118;5.408;2023-08-12T12:30:14;101637.13;;;24.66;80.06
80128;BME280;69440;52.118;5.408;2023-08-12T12:32:41;101637.09;;;24.92;79.63
80128;BME280;69440;52.118;5.408;2023-08-12T12:35:08;101635.03;;;24.94;75.71
80128;BME280;69440;52.118;5.408;2023-08-12T12:37:35;101625.75;;;25.29;74.27
80128;BME280;69440;52.118;5.408;2023-08-12T12:40:03;101635.22;;;25.35;76.51
80128;BME280;69440;52.118;5.408;2023-08-12T12:42:32;101633.41;;;25.52;72.71
80128;BME280;69440;52.118;5.408;2023-08-12T12:44:59;101629.34;;;25.72;72.59
80128;BME280;69440;52.118;5.408;2023-08-12T12:47:25;101631.56;;;25.68;69.25
80128;BME280;69440;52.118;5.408;2023-08-12T12:49:52;101625.84;;;25.62;68.81
80128;BME280;69440;52.118;5.408;2023-08-12T12:52:18;101633.75;;;25.65;70.12
80128;BME280;69440;52.118;5.408;2023-08-12T12:54:44;101617.13;;;25.75;68.61